sensor_id;sensor_type;location;lat;lon;timestamp;temperature;humidity
11736;DHT22;5924;51.398;7.088;2022-09-01T00:00:26;15.70;1.00
11736;DHT22;5924;51.398;7.088;2022-09-01T00:02:54;15.70;1.00
11736;DHT22;5924;51.398;7.088;2022-09-01T00:05:20;15.70;1.00
11736;DHT22;5924;51.398;7.088;2022-09-01T00:07:46;15.60;1.00
11736;DHT22;5924;51.398;7.088;2022-09-01T00:10:12;15.60;1.00
11736;DHT22;5924;51.398;7.088;2022-09-01T00:12:38;15.60;1.00
11736;DHT22;5924;51.398;7.088;2022-09-01T00:15:07;15.50;1.00
11736;DHT22;5924;51.398;7.088;2022-09-01T00:17:32;15.50;1.00
11736;DHT22;5924;51.398;7.088;2022-09-01T00:19:58;15.50;1.00
11736;DHT22;5924;51.398;7.088;2022-09-01T00:22:24;15.50;1.00
11736;DHT22;5924;51.398;7.088;2022-09-01T00:24:50;15.50;1.00
11736;DHT22;5924;51.398;7.088;2022-09-01T00:27:16;15.50;1.00
11736;DHT22;5924;51.398;7.088;2022-09-01T00:29:42;15.50;1.00
11736;DHT22;5924;51.398;7.088;2022-09-01T00:32:08;15.40;1.00
11736;DHT22;5924;51.398;7.088;2022-09-01T00:34:33;15.40;1.00
11736;DHT22;5924;51.398;7.088;2022-09-01T00:36:59;15.40;1.00
11736;DHT22;5924;51.398;7.088;2022-09-01T00:39:24;15.40;1.00
11736;DHT22;5924;51.398;7.088;2022-09-01T00:41:50;15.40;1.00
11736;DHT22;5924;51.398;7.088;2022-09-01T00:44:19;15.40;1.00
11736;DHT22;5924;51.398;7.088;2022-09-01T00:46:53;15.40;1.00
11736;DHT22;5924;51.398;7.088;2022-09-01T00:51:49;15.40;25.20
11736;DHT22;5924;51.398;7.088;2022-09-01T00:54:21;15.40;49.30
11736;DHT22;5924;51.398;7.088;2022-09-01T00:56:47;15.40;90.00
11736;DHT22;5924;51.398;7.088;2022-09-01T00:59:16;15.30;99.90
11736;DHT22;5924;51.398;7.088;2022-09-01T01:01:43;15.30;99.90
11736;DHT22;5924;51.398;7.088;2022-09-01T01:04:09;15.30;99.90
11736;DHT22;5924;51.398;7.088;2022-09-01T01:06:41;15.20;99.90
11736;DHT22;5924;51.398;7.088;2022-09-01T01:09:08;15.20;99.90
11736;DHT22;5924;51.398;7.088;2022-09-01T01:11:34;15.20;99.90
11736;DHT22;5924;51.398;7.088;2022-09-01T01:14:05;15.20;99.90
11736;DHT22;5924;51.398;7.088;2022-09-01T01:16:38;15.10;99.90
11736;DHT22;5924;51.398;7.088;2022-09-01T01:22:02;15.00;99.90
11736;DHT22;5924;51.398;7.088;2022-09-01T01:24:47;15.00;99.90
11736;DHT22;5924;51.398;7.088;2022-09-01T01:27:13;14.90;99.90
11736;DHT22;5924;51.398;7.088;2022-09-01T01:29:42;14.80;99.90
11736;DHT22;5924;51.398;7.088;2022-09-01T01:32:07;14.80;99.90
11736;DHT22;5924;51.398;7.088;2022-09-01T01:34:37;14.70;1.00
11736;DHT22;5924;51.398;7.088;2022-09-01T01:37:07;14.60;1.00
11736;DHT22;5924;51.398;7.088;2022-09-01T01:39:36;14.60;1.00
11736;DHT22;5924;51.398;7.088;2022-09-01T01:42:05;14.50;1.00
11736;DHT22;5924;51.398;7.088;2022-09-01T01:44:33;14.50;1.00
11736;DHT22;5924;51.398;7.088;2022-09-01T01:47:00;14.40;1.00
11736;DHT22;5924;51.398;7.088;2022-09-01T01:49:29;14.40;1.00
11736;DHT22;5924;51.398;7.088;2022-09-01T01:51:55;14.30;1.00
11736;DHT22;5924;51.398;7.088;2022-09-01T01:54:23;14.20;1.00
11736;DHT22;5924;51.398;7.088;2022-09-01T01:56:50;14.20;1.00
11736;DHT22;5924;51.398;7.088;2022-09-01T01:59:16;14.10;1.00
11736;DHT22;5924;51.398;7.088;2022-09-01T02:01:42;14.00;1.00
11736;DHT22;5924;51.398;7.088;2022-09-01T02:04:14;14.00;1.00
11736;DHT22;5924;51.398;7.088;2022-09-01T02:06:42;13.90;1.00
11736;DHT22;5924;51.398;7.088;2022-09-01T02:09:12;13.90;1.00
11736;DHT22;5924;51.398;7.088;2022-09-01T02:11:37;13.80;1.00
11736;DHT22;5924;51.398;7.088;2022-09-01T02:14:05;13.80;1.00
11736;DHT22;5924;51.398;7.088;2022-09-01T02:16:32;13.80;1.00
11736;DHT22;5924;51.398;7.088;2022-09-01T02:19:00;13.70;1.00
11736;DHT22;5924;51.398;7.088;2022-09-01T02:21:26;13.70;1.00
11736;DHT22;5924;51.398;7.088;2022-09-01T02:23:55;13.60;1.00
11736;DHT22;5924;51.398;7.088;2022-09-01T02:26:27;13.60;1.00
11736;DHT22;5924;51.398;7.088;2022-09-01T02:28:58;13.60;1.00
11736;DHT22;5924;51.398;7.088;2022-09-01T02:31:27;13.60;1.00
11736;DHT22;5924;51.398;7.088;2022-09-01T02:33:53;13.60;1.00
11736;DHT22;5924;51.398;7.088;2022-09-01T02:36:20;13.60;1.00
11736;DHT22;5924;51.398;7.088;2022-09-01T02:38:46;13.60;1.00
11736;DHT22;5924;51.398;7.088;2022-09-01T02:41:14;13.60;1.00
11736;DHT22;5924;51.398;7.088;2022-09-01T02:43:40;14.40;1.00
11736;DHT22;5924;51.398;7.088;2022-09-01T02:46:08;13.60;1.00
11736;DHT22;5924;51.398;7.088;2022-09-01T02:48:39;13.60;1.00
11736;DHT22;5924;51.398;7.088;2022-09-01T02:51:08;13.60;1.00
11736;DHT22;5924;51.398;7.088;2022-09-01T02:53:35;13.60;1.00
11736;DHT22;5924;51.398;7.088;2022-09-01T02:56:03;13.60;1.00
11736;DHT22;5924;51.398;7.088;2022-09-01T02:58:34;13.60;1.00
11736;DHT22;5924;51.398;7.088;2022-09-01T03:01:12;13.50;1.00
11736;DHT22;5924;51.398;7.088;2022-09-01T03:03:38;13.50;1.00
11736;DHT22;5924;51.398;7.088;2022-09-01T03:06:03;13.50;1.00
11736;DHT22;5924;51.398;7.088;2022-09-01T03:08:31;13.50;1.00
11736;DHT22;5924;51.398;7.088;2022-09-01T03:11:03;13.40;1.00
11736;DHT22;5924;51.398;7.088;2022-09-01T03:13:29;13.40;1.00
11736;DHT22;5924;51.398;7.088;2022-09-01T03:15:55;13.40;1.00
11736;DHT22;5924;51.398;7.088;2022-09-01T03:18:21;13.40;1.00
11736;DHT22;5924;51.398;7.088;2022-09-01T03:20:47;13.30;1.00
11736;DHT22;5924;51.398;7.088;2022-09-01T03:23:16;13.30;1.00
11736;DHT22;5924;51.398;7.088;2022-09-01T03:25:44;13.30;1.00
11736;DHT22;5924;51.398;7.088;2022-09-01T03:28:11;13.00;1.00
11736;DHT22;5924;51.398;7.088;2022-09-01T03:30:40;13.20;1.00
11736;DHT22;5924;51.398;7.088;2022-09-01T03:33:09;13.10;1.00
11736;DHT22;5924;51.398;7.088;2022-09-01T03:35:35;13.00;1.00
11736;DHT22;5924;51.398;7.088;2022-09-01T03:38:01;13.00;1.00
11736;DHT22;5924;51.398;7.088;2022-09-01T03:40:30;13.00;1.00
11736;DHT22;5924;51.398;7.088;2022-09-01T03:43:01;12.90;1.00
11736;DHT22;5924;51.398;7.088;2022-09-01T03:45:28;12.90;1.00
11736;DHT22;5924;51.398;7.088;2022-09-01T03:47:55;12.80;1.00
11736;DHT22;5924;51.398;7.088;2022-09-01T03:50:23;12.70;1.00
11736;DHT22;5924;51.398;7.088;2022-09-01T03:52:52;12.70;1.00
11736;DHT22;5924;51.398;7.088;2022-09-01T03:55:23;12.60;1.00
11736;DHT22;5924;51.398;7.088;2022-09-01T03:57:50;12.50;1.00
11736;DHT22;5924;51.398;7.088;2022-09-01T04:00:17;12.50;1.00
11736;DHT22;5924;51.398;7.088;2022-09-01T04:02:51;12.30;1.00
11736;DHT22;5924;51.398;7.088;2022-09-01T04:05:22;12.30;1.00
11736;DHT22;5924;51.398;7.088;2022-09-01T04:07:54;12.30;1.00
11736;DHT22;5924;51.398;7.088;2022-09-01T04:10:21;12.20;1.00
11736;DHT22;5924;51.398;7.088;2022-09-01T04:12:47;12.20;1.00
11736;DHT22;5924;51.398;7.088;2022-09-01T04:15:14;9.50;1.00
11736;DHT22;5924;51.398;7.088;2022-09-01T04:17:44;12.10;1.00
11736;DHT22;5924;51.398;7.088;2022-09-01T04:20:28;12.10;1.00
11736;DHT22;5924;51.398;7.088;2022-09-01T04:23:07;12.10;1.00
11736;DHT22;5924;51.398;7.088;2022-09-01T04:25:37;12.10;1.00
11736;DHT22;5924;51.398;7.088;2022-09-01T04:28:04;12.00;1.00
11736;DHT22;5924;51.398;7.088;2022-09-01T04:30:38;12.00;1.00
11736;DHT22;5924;51.398;7.088;2022-09-01T04:33:06;11.90;1.00
11736;DHT22;5924;51.398;7.088;2022-09-01T04:35:36;10.90;1.00
11736;DHT22;5924;51.398;7.088;2022-09-01T04:38:01;11.90;1.00
11736;DHT22;5924;51.398;7.088;2022-09-01T04:40:27;11.90;1.00
11736;DHT22;5924;51.398;7.088;2022-09-01T04:42:53;11.80;1.00
11736;DHT22;5924;51.398;7.088;2022-09-01T04:45:19;11.80;1.70
11736;DHT22;5924;51.398;7.088;2022-09-01T04:47:47;11.80;2.50
11736;DHT22;5924;51.398;7.088;2022-09-01T04:50:13;11.80;3.10
11736;DHT22;5924;51.398;7.088;2022-09-01T04:52:43;11.80;3.80
11736;DHT22;5924;51.398;7.088;2022-09-01T04:55:13;11.80;6.00
11736;DHT22;5924;51.398;7.088;2022-09-01T04:57:46;11.90;7.10
11736;DHT22;5924;51.398;7.088;2022-09-01T05:00:20;11.90;5.50
11736;DHT22;5924;51.398;7.088;2022-09-01T05:02:53;11.90;5.00
11736;DHT22;5924;51.398;7.088;2022-09-01T05:05:21;11.90;3.90
11736;DHT22;5924;51.398;7.088;2022-09-01T05:07:47;12.00;1.20
11736;DHT22;5924;51.398;7.088;2022-09-01T05:10:19;12.00;1.00
11736;DHT22;5924;51.398;7.088;2022-09-01T05:12:46;12.10;1.00
11736;DHT22;5924;51.398;7.088;2022-09-01T05:15:13;12.10;1.00
11736;DHT22;5924;51.398;7.088;2022-09-01T05:17:39;12.10;1.00
11736;DHT22;5924;51.398;7.088;2022-09-01T05:20:06;12.10;1.00
11736;DHT22;5924;51.398;7.088;2022-09-01T05:22:32;12.10;1.00
11736;DHT22;5924;51.398;7.088;2022-09-01T05:25:00;12.20;1.00
11736;DHT22;5924;51.398;7.088;2022-09-01T05:27:41;12.10;1.00
11736;DHT22;5924;51.398;7.088;2022-09-01T05:30:07;12.20;1.00
11736;DHT22;5924;51.398;7.088;2022-09-01T05:32:34;12.20;1.00
11736;DHT22;5924;51.398;7.088;2022-09-01T05:35:03;12.20;1.00
11736;DHT22;5924;51.398;7.088;2022-09-01T05:37:34;12.20;1.20
11736;DHT22;5924;51.398;7.088;2022-09-01T05:40:03;12.10;3.40
11736;DHT22;5924;51.398;7.088;2022-09-01T05:42:29;12.20;4.90
11736;DHT22;5924;51.398;7.088;2022-09-01T05:44:55;12.20;3.70
11736;DHT22;5924;51.398;7.088;2022-09-01T05:47:20;12.30;1.10
11736;DHT22;5924;51.398;7.088;2022-09-01T05:49:48;12.30;1.00
11736;DHT22;5924;51.398;7.088;2022-09-01T05:52:14;12.30;1.00
11736;DHT22;5924;51.398;7.088;2022-09-01T05:54:40;12.30;1.00
11736;DHT22;5924;51.398;7.088;2022-09-01T05:57:05;12.40;1.00
11736;DHT22;5924;51.398;7.088;2022-09-01T05:59:31;12.40;1.00
11736;DHT22;5924;51.398;7.088;2022-09-01T06:01:57;12.40;1.00
11736;DHT22;5924;51.398;7.088;2022-09-01T06:04:24;12.50;1.00
11736;DHT22;5924;51.398;7.088;2022-09-01T06:06:50;12.50;1.00
11736;DHT22;5924;51.398;7.088;2022-09-01T06:09:17;12.50;1.00
11736;DHT22;5924;51.398;7.088;2022-09-01T06:11:46;12.50;1.00
11736;DHT22;5924;51.398;7.088;2022-09-01T06:14:15;11.60;1.00
11736;DHT22;5924;51.398;7.088;2022-09-01T06:16:43;12.60;1.00
11736;DHT22;5924;51.398;7.088;2022-09-01T06:19:09;12.60;1.00
11736;DHT22;5924;51.398;7.088;2022-09-01T06:21:37;12.60;1.00
11736;DHT22;5924;51.398;7.088;2022-09-01T06:24:03;12.70;1.00
11736;DHT22;5924;51.398;7.088;2022-09-01T06:26:34;11.80;1.00
11736;DHT22;5924;51.398;7.088;2022-09-01T06:29:06;12.80;1.00
11736;DHT22;5924;51.398;7.088;2022-09-01T06:31:34;12.90;1.00
11736;DHT22;5924;51.398;7.088;2022-09-01T06:34:05;13.00;1.00
11736;DHT22;5924;51.398;7.088;2022-09-01T06:36:32;13.10;1.00
11736;DHT22;5924;51.398;7.088;2022-09-01T06:39:02;13.20;1.00
11736;DHT22;5924;51.398;7.088;2022-09-01T06:41:28;13.30;1.00
11736;DHT22;5924;51.398;7.088;2022-09-01T06:43:55;13.40;1.00
11736;DHT22;5924;51.398;7.088;2022-09-01T06:46:21;13.50;1.00
11736;DHT22;5924;51.398;7.088;2022-09-01T06:48:48;13.60;1.00
11736;DHT22;5924;51.398;7.088;2022-09-01T06:51:19;13.60;1.00
11736;DHT22;5924;51.398;7.088;2022-09-01T06:53:47;13.80;1.00
11736;DHT22;5924;51.398;7.088;2022-09-01T06:56:22;13.90;1.00
11736;DHT22;5924;51.398;7.088;2022-09-01T06:58:51;14.00;1.00
11736;DHT22;5924;51.398;7.088;2022-09-01T07:01:19;14.30;1.00
11736;DHT22;5924;51.398;7.088;2022-09-01T07:03:48;14.50;1.00
11736;DHT22;5924;51.398;7.088;2022-09-01T07:06:16;14.60;1.00
11736;DHT22;5924;51.398;7.088;2022-09-01T07:08:43;14.70;1.00
11736;DHT22;5924;51.398;7.088;2022-09-01T07:11:22;14.80;1.00
11736;DHT22;5924;51.398;7.088;2022-09-01T07:13:53;15.00;1.00
11736;DHT22;5924;51.398;7.088;2022-09-01T07:16:20;15.10;1.00
11736;DHT22;5924;51.398;7.088;2022-09-01T07:18:49;15.20;99.90
11736;DHT22;5924;51.398;7.088;2022-09-01T07:21:15;15.40;99.90
11736;DHT22;5924;51.398;7.088;2022-09-01T07:23:41;15.50;99.90
11736;DHT22;5924;51.398;7.088;2022-09-01T07:26:10;15.70;99.90
11736;DHT22;5924;51.398;7.088;2022-09-01T07:28:37;15.80;1.00
11736;DHT22;5924;51.398;7.088;2022-09-01T07:31:03;16.00;1.00
11736;DHT22;5924;51.398;7.088;2022-09-01T07:33:30;16.10;1.00
11736;DHT22;5924;51.398;7.088;2022-09-01T07:35:58;16.30;1.00
11736;DHT22;5924;51.398;7.088;2022-09-01T07:38:25;16.40;99.90
11736;DHT22;5924;51.398;7.088;2022-09-01T07:40:51;16.50;1.00
11736;DHT22;5924;51.398;7.088;2022-09-01T07:43:22;16.70;1.00
11736;DHT22;5924;51.398;7.088;2022-09-01T07:45:54;16.80;99.90
11736;DHT22;5924;51.398;7.088;2022-09-01T07:48:22;16.90;1.00
11736;DHT22;5924;51.398;7.088;2022-09-01T07:50:51;17.00;99.90
11736;DHT22;5924;51.398;7.088;2022-09-01T07:53:21;17.10;99.90
11736;DHT22;5924;51.398;7.088;2022-09-01T07:55:52;17.20;99.90
11736;DHT22;5924;51.398;7.088;2022-09-01T07:58:20;17.30;1.00
11736;DHT22;5924;51.398;7.088;2022-09-01T08:00:46;17.40;1.00
11736;DHT22;5924;51.398;7.088;2022-09-01T08:03:15;17.60;99.90
11736;DHT22;5924;51.398;7.088;2022-09-01T08:05:41;17.70;24.70
11736;DHT22;5924;51.398;7.088;2022-09-01T08:08:08;17.90;99.90
11736;DHT22;5924;51.398;7.088;2022-09-01T08:10:35;18.00;1.00
11736;DHT22;5924;51.398;7.088;2022-09-01T08:13:02;18.10;99.90
11736;DHT22;5924;51.398;7.088;2022-09-01T08:15:28;18.30;1.00
11736;DHT22;5924;51.398;7.088;2022-09-01T08:17:53;18.40;1.00
11736;DHT22;5924;51.398;7.088;2022-09-01T08:20:19;18.60;1.00
11736;DHT22;5924;51.398;7.088;2022-09-01T08:22:44;18.70;99.90
11736;DHT22;5924;51.398;7.088;2022-09-01T08:25:10;18.90;99.90
11736;DHT22;5924;51.398;7.088;2022-09-01T08:27:37;19.10;99.90
11736;DHT22;5924;51.398;7.088;2022-09-01T08:30:08;19.20;99.90
11736;DHT22;5924;51.398;7.088;2022-09-01T08:32:35;19.40;99.90
11736;DHT22;5924;51.398;7.088;2022-09-01T08:35:02;19.60;99.90
11736;DHT22;5924;51.398;7.088;2022-09-01T08:37:30;19.80;99.90
11736;DHT22;5924;51.398;7.088;2022-09-01T08:39:56;19.80;99.90
11736;DHT22;5924;51.398;7.088;2022-09-01T08:45:32;20.00;44.90
11736;DHT22;5924;51.398;7.088;2022-09-01T08:51:15;20.30;16.10
11736;DHT22;5924;51.398;7.088;2022-09-01T08:56:40;20.50;99.90
11736;DHT22;5924;51.398;7.088;2022-09-01T08:59:10;20.60;99.90
11736;DHT22;5924;51.398;7.088;2022-09-01T09:01:43;20.70;99.90
11736;DHT22;5924;51.398;7.088;2022-09-01T09:09:17;21.20;31.50
11736;DHT22;5924;51.398;7.088;2022-09-01T09:17:19;21.60;1.00
11736;DHT22;5924;51.398;7.088;2022-09-01T09:19:45;21.70;99.90
11736;DHT22;5924;51.398;7.088;2022-09-01T09:22:14;21.80;1.00
11736;DHT22;5924;51.398;7.088;2022-09-01T09:29:57;21.90;1.00
11736;DHT22;5924;51.398;7.088;2022-09-01T09:32:40;22.00;99.90
11736;DHT22;5924;51.398;7.088;2022-09-01T09:35:25;22.10;27.80
11736;DHT22;5924;51.398;7.088;2022-09-01T09:37:52;22.20;1.00
11736;DHT22;5924;51.398;7.088;2022-09-01T09:40:20;22.30;60.90
11736;DHT22;5924;51.398;7.088;2022-09-01T09:45:26;22.50;1.00
11736;DHT22;5924;51.398;7.088;2022-09-01T09:47:53;22.60;1.00
11736;DHT22;5924;51.398;7.088;2022-09-01T09:50:28;22.70;1.00
11736;DHT22;5924;51.398;7.088;2022-09-01T09:55:57;22.80;1.00
11736;DHT22;5924;51.398;7.088;2022-09-01T09:58:28;22.70;90.60
11736;DHT22;5924;51.398;7.088;2022-09-01T10:00:59;22.70;91.40
11736;DHT22;5924;51.398;7.088;2022-09-01T10:03:38;22.90;91.50
11736;DHT22;5924;51.398;7.088;2022-09-01T10:06:09;23.00;94.10
11736;DHT22;5924;51.398;7.088;2022-09-01T10:08:38;23.00;94.20
11736;DHT22;5924;51.398;7.088;2022-09-01T10:11:10;22.90;94.60
11736;DHT22;5924;51.398;7.088;2022-09-01T10:13:36;23.20;94.90
11736;DHT22;5924;51.398;7.088;2022-09-01T10:16:06;23.20;94.60
11736;DHT22;5924;51.398;7.088;2022-09-01T10:18:39;23.10;94.00
11736;DHT22;5924;51.398;7.088;2022-09-01T10:23:33;23.20;94.80
11736;DHT22;5924;51.398;7.088;2022-09-01T10:26:09;23.30;94.90
11736;DHT22;5924;51.398;7.088;2022-09-01T10:28:43;23.40;95.40
11736;DHT22;5924;51.398;7.088;2022-09-01T10:31:10;23.60;95.60
11736;DHT22;5924;51.398;7.088;2022-09-01T10:33:36;23.70;94.30
11736;DHT22;5924;51.398;7.088;2022-09-01T10:36:02;23.70;93.50
11736;DHT22;5924;51.398;7.088;2022-09-01T10:38:30;23.50;93.90
11736;DHT22;5924;51.398;7.088;2022-09-01T10:40:57;23.10;94.30
11736;DHT22;5924;51.398;7.088;2022-09-01T10:46:06;22.80;94.80
11736;DHT22;5924;51.398;7.088;2022-09-01T10:48:33;23.10;95.60
11736;DHT22;5924;51.398;7.088;2022-09-01T10:53:48;23.70;94.10
11736;DHT22;5924;51.398;7.088;2022-09-01T10:56:22;23.80;93.60
11736;DHT22;5924;51.398;7.088;2022-09-01T11:04:16;24.20;93.60
11736;DHT22;5924;51.398;7.088;2022-09-01T11:06:59;24.20;92.50
11736;DHT22;5924;51.398;7.088;2022-09-01T11:12:29;22.10;91.10
11736;DHT22;5924;51.398;7.088;2022-09-01T11:15:37;24.00;93.00
11736;DHT22;5924;51.398;7.088;2022-09-01T11:17:55;24.10;92.00
11736;DHT22;5924;51.398;7.088;2022-09-01T11:20:30;23.90;91.80
11736;DHT22;5924;51.398;7.088;2022-09-01T11:23:02;24.10;92.80
11736;DHT22;5924;51.398;7.088;2022-09-01T11:25:48;24.40;92.50
11736;DHT22;5924;51.398;7.088;2022-09-01T11:36:25;25.10;90.60
11736;DHT22;5924;51.398;7.088;2022-09-01T11:38:55;25.10;90.40
11736;DHT22;5924;51.398;7.088;2022-09-01T11:47:03;25.70;89.30
11736;DHT22;5924;51.398;7.088;2022-09-01T11:49:32;25.80;87.00
11736;DHT22;5924;51.398;7.088;2022-09-01T11:52:00;25.70;85.80
11736;DHT22;5924;51.398;7.088;2022-09-01T11:54:29;25.70;86.80
11736;DHT22;5924;51.398;7.088;2022-09-01T11:57:16;26.10;87.60
11736;DHT22;5924;51.398;7.088;2022-09-01T11:59:42;26.10;84.60
11736;DHT22;5924;51.398;7.088;2022-09-01T12:02:08;26.20;86.00
11736;DHT22;5924;51.398;7.088;2022-09-01T12:04:41;26.40;83.00
11736;DHT22;5924;51.398;7.088;2022-09-01T12:07:11;26.10;81.60
11736;DHT22;5924;51.398;7.088;2022-09-01T12:09:41;25.80;82.60
11736;DHT22;5924;51.398;7.088;2022-09-01T12:12:42;26.00;83.40
11736;DHT22;5924;51.398;7.088;2022-09-01T12:15:20;26.80;81.20
11736;DHT22;5924;51.398;7.088;2022-09-01T12:17:47;27.60;79.60
11736;DHT22;5924;51.398;7.088;2022-09-01T12:20:29;28.40;78.80
11736;DHT22;5924;51.398;7.088;2022-09-01T12:23:02;29.20;73.40
11736;DHT22;5924;51.398;7.088;2022-09-01T12:25:32;29.90;70.70
11736;DHT22;5924;51.398;7.088;2022-09-01T12:28:03;30.40;67.80
11736;DHT22;5924;51.398;7.088;2022-09-01T12:30:31;30.70;63.40
11736;DHT22;5924;51.398;7.088;2022-09-01T12:33:05;30.60;63.00
11736;DHT22;5924;51.398;7.088;2022-09-01T12:35:31;30.30;60.70
11736;DHT22;5924;51.398;7.088;2022-09-01T12:40:41;28.80;64.50
11736;DHT22;5924;51.398;7.088;2022-09-01T12:43:07;29.50;66.00
11736;DHT22;5924;51.398;7.088;2022-09-01T12:45:44;30.00;63.10
11736;DHT22;5924;51.398;7.088;2022-09-01T12:48:43;30.00;61.20
11736;DHT22;5924;51.398;7.088;2022-09-01T12:51:24;29.60;61.80
11736;DHT22;5924;51.398;7.088;2022-09-01T12:53:53;29.30;62.10
11736;DHT22;5924;51.398;7.088;2022-09-01T12:56:27;29.20;62.70
11736;DHT22;5924;51.398;7.088;2022-09-01T12:59:23;30.00;62.90
11736;DHT22;5924;51.398;7.088;2022-09-01T13:01:49;30.90;59.70
11736;DHT22;5924;51.398;7.088;2022-09-01T13:04:24;31.10;59.40
11736;DHT22;5924;51.398;7.088;2022-09-01T13:06:52;31.40;58.10
11736;DHT22;5924;51.398;7.088;2022-09-01T13:09:18;32.20;57.40
11736;DHT22;5924;51.398;7.088;2022-09-01T13:11:44;33.10;55.30
11736;DHT22;5924;51.398;7.088;2022-09-01T13:14:14;32.30;54.10
11736;DHT22;5924;51.398;7.088;2022-09-01T13:16:40;31.50;55.30
11736;DHT22;5924;51.398;7.088;2022-09-01T13:19:07;31.00;55.20
11736;DHT22;5924;51.398;7.088;2022-09-01T13:21:34;30.50;55.60
11736;DHT22;5924;51.398;7.088;2022-09-01T13:24:01;30.40;55.50
11736;DHT22;5924;51.398;7.088;2022-09-01T13:26:28;29.60;56.80
11736;DHT22;5924;51.398;7.088;2022-09-01T13:28:56;29.40;57.30
11736;DHT22;5924;51.398;7.088;2022-09-01T13:31:22;30.10;57.60
11736;DHT22;5924;51.398;7.088;2022-09-01T13:33:48;30.00;55.80
11736;DHT22;5924;51.398;7.088;2022-09-01T13:36:14;30.10;54.30
11736;DHT22;5924;51.398;7.088;2022-09-01T13:38:40;31.10;55.80
11736;DHT22;5924;51.398;7.088;2022-09-01T13:41:05;32.50;54.00
11736;DHT22;5924;51.398;7.088;2022-09-01T13:43:33;34.00;52.70
11736;DHT22;5924;51.398;7.088;2022-09-01T13:45:59;34.80;50.70
11736;DHT22;5924;51.398;7.088;2022-09-01T13:48:24;34.90;49.20
11736;DHT22;5924;51.398;7.088;2022-09-01T13:50:52;35.20;48.10
11736;DHT22;5924;51.398;7.088;2022-09-01T13:53:18;35.80;46.00
11736;DHT22;5924;51.398;7.088;2022-09-01T13:55:44;35.70;44.60
11736;DHT22;5924;51.398;7.088;2022-09-01T13:58:10;35.90;44.10
11736;DHT22;5924;51.398;7.088;2022-09-01T14:00:39;35.60;44.40
11736;DHT22;5924;51.398;7.088;2022-09-01T14:03:14;35.10;44.00
11736;DHT22;5924;51.398;7.088;2022-09-01T14:05:43;33.40;44.60
11736;DHT22;5924;51.398;7.088;2022-09-01T14:08:10;32.10;47.50
11736;DHT22;5924;51.398;7.088;2022-09-01T14:10:44;32.30;46.80
11736;DHT22;5924;51.398;7.088;2022-09-01T14:13:11;31.60;47.20
11736;DHT22;5924;51.398;7.088;2022-09-01T14:15:37;31.00;48.50
11736;DHT22;5924;51.398;7.088;2022-09-01T14:18:03;32.10;47.70
11736;DHT22;5924;51.398;7.088;2022-09-01T14:20:36;33.30;45.90
11736;DHT22;5924;51.398;7.088;2022-09-01T14:23:05;33.50;44.10
11736;DHT22;5924;51.398;7.088;2022-09-01T14:25:31;33.80;44.30
11736;DHT22;5924;51.398;7.088;2022-09-01T14:27:58;34.40;42.60
11736;DHT22;5924;51.398;7.088;2022-09-01T14:30:26;34.10;42.70
11736;DHT22;5924;51.398;7.088;2022-09-01T14:32:52;32.50;44.60
11736;DHT22;5924;51.398;7.088;2022-09-01T14:35:22;31.40;46.40
11736;DHT22;5924;51.398;7.088;2022-09-01T14:37:51;30.50;47.20
11736;DHT22;5924;51.398;7.088;2022-09-01T14:40:19;31.00;48.00
11736;DHT22;5924;51.398;7.088;2022-09-01T14:42:47;31.90;46.30
11736;DHT22;5924;51.398;7.088;2022-09-01T14:45:18;32.80;44.50
11736;DHT22;5924;51.398;7.088;2022-09-01T14:47:46;33.80;44.40
11736;DHT22;5924;51.398;7.088;2022-09-01T14:50:12;34.50;43.20
11736;DHT22;5924;51.398;7.088;2022-09-01T14:52:38;35.60;42.50
11736;DHT22;5924;51.398;7.088;2022-09-01T14:55:04;35.00;41.30
11736;DHT22;5924;51.398;7.088;2022-09-01T14:57:30;34.10;42.90
11736;DHT22;5924;51.398;7.088;2022-09-01T14:59:57;34.10;43.50
11736;DHT22;5924;51.398;7.088;2022-09-01T15:02:23;34.50;42.40
11736;DHT22;5924;51.398;7.088;2022-09-01T15:04:50;34.20;42.30
11736;DHT22;5924;51.398;7.088;2022-09-01T15:07:16;33.30;43.30
11736;DHT22;5924;51.398;7.088;2022-09-01T15:09:42;33.40;43.20
11736;DHT22;5924;51.398;7.088;2022-09-01T15:12:08;34.30;42.10
11736;DHT22;5924;51.398;7.088;2022-09-01T15:14:34;35.40;41.20
11736;DHT22;5924;51.398;7.088;2022-09-01T15:17:00;36.40;41.00
11736;DHT22;5924;51.398;7.088;2022-09-01T15:19:26;36.90;39.20
11736;DHT22;5924;51.398;7.088;2022-09-01T15:21:51;36.80;37.80
11736;DHT22;5924;51.398;7.088;2022-09-01T15:24:17;36.70;38.30
11736;DHT22;5924;51.398;7.088;2022-09-01T15:26:43;37.40;37.80
11736;DHT22;5924;51.398;7.088;2022-09-01T15:29:11;37.60;38.20
11736;DHT22;5924;51.398;7.088;2022-09-01T15:31:41;37.80;36.40
11736;DHT22;5924;51.398;7.088;2022-09-01T15:34:10;37.50;36.90
11736;DHT22;5924;51.398;7.088;2022-09-01T15:36:39;37.60;36.50
11736;DHT22;5924;51.398;7.088;2022-09-01T15:39:05;36.80;36.00
11736;DHT22;5924;51.398;7.088;2022-09-01T15:41:32;36.40;37.20
11736;DHT22;5924;51.398;7.088;2022-09-01T15:44:01;36.10;36.10
11736;DHT22;5924;51.398;7.088;2022-09-01T15:46:26;36.50;37.00
11736;DHT22;5924;51.398;7.088;2022-09-01T15:48:58;36.00;36.80
11736;DHT22;5924;51.398;7.088;2022-09-01T15:51:30;36.40;36.70
11736;DHT22;5924;51.398;7.088;2022-09-01T15:54:09;36.00;36.70
11736;DHT22;5924;51.398;7.088;2022-09-01T15:56:36;36.20;36.50
11736;DHT22;5924;51.398;7.088;2022-09-01T15:59:03;36.60;36.40
11736;DHT22;5924;51.398;7.088;2022-09-01T16:01:31;36.20;35.10
11736;DHT22;5924;51.398;7.088;2022-09-01T16:03:57;36.10;35.90
11736;DHT22;5924;51.398;7.088;2022-09-01T16:06:23;36.60;35.90
11736;DHT22;5924;51.398;7.088;2022-09-01T16:08:51;36.80;35.30
11736;DHT22;5924;51.398;7.088;2022-09-01T16:11:22;36.70;35.30
11736;DHT22;5924;51.398;7.088;2022-09-01T16:13:50;35.00;35.50
11736;DHT22;5924;51.398;7.088;2022-09-01T16:19:20;33.50;37.60
11736;DHT22;5924;51.398;7.088;2022-09-01T16:24:17;33.60;37.90
11736;DHT22;5924;51.398;7.088;2022-09-01T16:26:46;34.10;37.00
11736;DHT22;5924;51.398;7.088;2022-09-01T16:31:47;34.90;36.70
11736;DHT22;5924;51.398;7.088;2022-09-01T16:34:15;35.30;35.90
11736;DHT22;5924;51.398;7.088;2022-09-01T16:37:05;35.30;35.70
11736;DHT22;5924;51.398;7.088;2022-09-01T16:45:26;35.10;35.40
11736;DHT22;5924;51.398;7.088;2022-09-01T16:47:58;34.90;36.10
11736;DHT22;5924;51.398;7.088;2022-09-01T16:50:29;34.90;35.50
11736;DHT22;5924;51.398;7.088;2022-09-01T16:53:13;34.70;35.80
11736;DHT22;5924;51.398;7.088;2022-09-01T16:56:12;34.70;36.40
11736;DHT22;5924;51.398;7.088;2022-09-01T17:04:33;30.10;40.50
11736;DHT22;5924;51.398;7.088;2022-09-01T17:07:12;28.40;42.90
11736;DHT22;5924;51.398;7.088;2022-09-01T17:09:42;27.30;44.80
11736;DHT22;5924;51.398;7.088;2022-09-01T17:12:26;26.40;46.20
11736;DHT22;5924;51.398;7.088;2022-09-01T17:15:01;25.70;47.40
11736;DHT22;5924;51.398;7.088;2022-09-01T17:20:11;24.80;49.20
11736;DHT22;5924;51.398;7.088;2022-09-01T17:22:43;24.60;50.10
11736;DHT22;5924;51.398;7.088;2022-09-01T17:25:28;24.30;51.10
11736;DHT22;5924;51.398;7.088;2022-09-01T17:28:05;24.00;51.40
11736;DHT22;5924;51.398;7.088;2022-09-01T17:30:38;23.80;52.30
11736;DHT22;5924;51.398;7.088;2022-09-01T17:33:17;23.60;52.80
11736;DHT22;5924;51.398;7.088;2022-09-01T17:38:58;23.10;54.10